createdAt,value
2018-11-25T00:01:49.130Z,68.10
2018-11-25T00:04:17.487Z,74.23
2018-11-25T00:06:45.536Z,78.43
2018-11-25T00:09:13.668Z,76.17
2018-11-25T00:11:41.702Z,70.33
2018-11-25T00:14:09.748Z,68.20
2018-11-25T00:16:37.984Z,67.73
2018-11-25T00:19:06.324Z,74.50
2018-11-25T00:21:34.365Z,71.50
2018-11-25T00:24:02.856Z,78.07
2018-11-25T00:26:30.962Z,59.67
2018-11-25T00:28:58.981Z,68.97
2018-11-25T00:31:27.079Z,67.30
2018-11-25T00:33:55.381Z,79.97
2018-11-25T00:36:23.464Z,63.87
2018-11-25T00:38:51.695Z,62.03
2018-11-25T00:41:19.735Z,70.80
2018-11-25T00:43:47.780Z,67.87
2018-11-25T00:46:15.847Z,71.60
2018-11-25T00:48:43.936Z,71.87
2018-11-25T00:51:11.993Z,72.80
2018-11-25T00:53:40.605Z,72.00
2018-11-25T00:56:08.669Z,72.23
2018-11-25T00:58:36.773Z,68.80
2018-11-25T01:01:05.016Z,74.93
2018-11-25T01:03:33.040Z,85.60
2018-11-25T01:06:01.325Z,72.23
2018-11-25T01:08:29.465Z,82.03
2018-11-25T01:10:57.490Z,71.20
2018-11-25T01:13:25.533Z,68.97
2018-11-25T01:15:53.622Z,73.70
2018-11-25T01:18:21.704Z,81.57
2018-11-25T01:20:49.748Z,82.87
2018-11-25T01:23:18.101Z,91.63
2018-11-25T01:25:46.176Z,75.33
2018-11-25T01:28:14.239Z,79.43
2018-11-25T01:30:42.356Z,66.63
2018-11-25T01:33:10.405Z,71.63
2018-11-25T01:35:38.469Z,73.30
2018-11-25T01:38:06.944Z,70.70
2018-11-25T01:40:34.996Z,85.70
2018-11-25T01:43:33.929Z,71.83
2018-11-25T01:46:02.095Z,73.63
2018-11-25T01:48:30.289Z,67.23
2018-11-25T01:50:58.441Z,75.17
2018-11-25T01:53:26.600Z,76.27
2018-11-25T01:55:54.865Z,69.93
2018-11-25T01:58:23.294Z,74.13
2018-11-25T02:00:51.353Z,82.53
2018-11-25T02:03:19.400Z,79.00
2018-11-25T02:05:47.564Z,72.77
2018-11-25T02:08:15.957Z,78.43
2018-11-25T02:10:44.041Z,73.33
2018-11-25T02:13:12.306Z,90.20
2018-11-25T02:15:40.368Z,67.43
2018-11-25T02:18:08.448Z,64.90
2018-11-25T02:20:36.743Z,69.27
2018-11-25T02:23:05.252Z,67.53
2018-11-25T02:25:33.305Z,65.73
2018-11-25T02:28:01.402Z,68.80
2018-11-25T02:30:29.429Z,70.33
2018-11-25T02:32:57.464Z,67.53
2018-11-25T02:35:25.797Z,78.90
2018-11-25T02:37:53.852Z,62.20
2018-11-25T02:40:21.879Z,66.30
2018-11-25T02:42:49.927Z,75.83
2018-11-25T02:45:18.672Z,66.27
2018-11-25T02:47:47.032Z,55.93
2018-11-25T02:50:21.900Z,64.40
2018-11-25T02:52:50.097Z,48.17
2018-11-25T02:55:23.319Z,64.30
2018-11-25T02:57:51.392Z,82.87
2018-11-25T03:00:19.396Z,61.23
2018-11-25T03:02:47.651Z,62.47
2018-11-25T03:05:15.709Z,65.30
2018-11-25T03:07:44.114Z,63.27
2018-11-25T03:10:12.325Z,73.93
2018-11-25T03:12:40.397Z,67.67
2018-11-25T03:15:14.245Z,60.00
2018-11-25T03:17:42.340Z,61.80
2018-11-25T03:20:12.466Z,65.30
2018-11-25T03:22:40.551Z,64.90
2018-11-25T03:25:10.249Z,66.23
2018-11-25T03:27:38.325Z,63.67
2018-11-25T03:30:09.844Z,61.53
2018-11-25T03:32:38.064Z,58.23
2018-11-25T03:35:06.785Z,71.17
2018-11-25T03:37:35.003Z,70.03
2018-11-25T03:40:04.074Z,57.40
2018-11-25T03:42:32.184Z,59.10
2018-11-25T03:45:00.270Z,68.47
2018-11-25T03:47:28.424Z,61.33
2018-11-25T03:49:56.600Z,55.20
2018-11-25T03:52:24.723Z,54.77
2018-11-25T03:54:53.275Z,58.83
2018-11-25T03:57:21.471Z,53.90
2018-11-25T03:59:49.753Z,64.97
2018-11-25T04:02:17.858Z,57.23
2018-11-25T04:04:45.895Z,69.93
2018-11-25T04:07:13.939Z,62.33
2018-11-25T04:09:41.979Z,66.30
2018-11-25T04:12:10.239Z,49.63
2018-11-25T04:17:12.015Z,54.13
2018-11-25T04:19:40.184Z,51.80
2018-11-25T04:22:08.333Z,56.50
2018-11-25T04:24:36.398Z,60.07
2018-11-25T04:27:04.508Z,52.03
2018-11-25T04:29:32.547Z,58.37
2018-11-25T04:32:00.616Z,59.33
2018-11-25T04:34:29.026Z,54.80
2018-11-25T04:36:57.094Z,55.40
2018-11-25T04:39:25.160Z,65.77
2018-11-25T04:41:53.209Z,59.03
2018-11-25T04:44:21.327Z,63.47
2018-11-25T04:46:49.435Z,64.33
2018-11-25T04:49:17.499Z,60.77
2018-11-25T04:51:45.798Z,58.65
2018-11-25T04:54:13.839Z,62.20
2018-11-25T04:56:41.927Z,64.60
2018-11-25T04:59:10.001Z,56.93
2018-11-25T05:01:38.061Z,59.30
2018-11-25T05:04:06.511Z,70.93
2018-11-25T05:06:34.576Z,59.13
2018-11-25T05:09:02.649Z,47.50
2018-11-25T05:11:30.705Z,62.37
2018-11-25T05:13:59.158Z,59.73
2018-11-25T05:16:27.200Z,53.07
2018-11-25T05:18:55.384Z,55.13
2018-11-25T05:21:29.953Z,46.93
2018-11-25T05:23:58.079Z,55.63
2018-11-25T05:26:26.119Z,59.27
2018-11-25T05:28:54.152Z,61.27
2018-11-25T05:31:22.808Z,59.27
2018-11-25T05:33:50.904Z,63.33
2018-11-25T05:36:18.940Z,55.10
2018-11-25T05:38:47.380Z,50.47
2018-11-25T05:41:15.444Z,52.97
2018-11-25T05:43:43.476Z,63.73
2018-11-25T05:46:11.570Z,53.70
2018-11-25T05:48:39.634Z,58.60
2018-11-25T05:51:08.629Z,58.07
2018-11-25T05:53:36.744Z,55.30
2018-11-25T05:56:04.884Z,58.93
2018-11-25T05:58:32.921Z,59.80
2018-11-25T06:01:00.995Z,51.27
2018-11-25T06:03:29.028Z,62.60
2018-11-25T06:05:57.099Z,55.10
2018-11-25T06:08:25.395Z,59.77
2018-11-25T06:10:53.705Z,68.77
2018-11-25T06:13:21.780Z,55.40
2018-11-25T06:15:50.409Z,61.73
2018-11-25T06:18:18.530Z,63.40
2018-11-25T06:20:46.553Z,56.27
2018-11-25T06:23:14.712Z,57.47
2018-11-25T06:25:42.756Z,57.07
2018-11-25T06:28:10.828Z,47.60
2018-11-25T06:30:38.897Z,58.30
2018-11-25T06:33:06.933Z,49.53
2018-11-25T06:35:35.020Z,60.33
2018-11-25T06:38:03.229Z,52.80
2018-11-25T06:40:31.280Z,52.57
2018-11-25T06:42:59.349Z,52.70
2018-11-25T06:45:28.750Z,51.57
2018-11-25T06:47:57.596Z,41.33
2018-11-25T06:50:25.664Z,53.30
2018-11-25T06:52:53.740Z,54.10
2018-11-25T06:55:21.804Z,55.93
2018-11-25T06:57:49.874Z,61.50
2018-11-25T07:00:20.951Z,57.87
2018-11-25T07:02:49.021Z,52.43
2018-11-25T07:05:17.169Z,54.50
2018-11-25T07:07:45.253Z,63.47
2018-11-25T07:10:19.171Z,55.47
2018-11-25T07:12:48.352Z,66.83
2018-11-25T07:15:17.425Z,62.07
2018-11-25T07:17:45.800Z,59.00
2018-11-25T07:20:15.101Z,63.47
2018-11-25T07:22:43.743Z,69.55
2018-11-25T07:25:13.969Z,56.90
2018-11-25T07:27:42.040Z,58.73
2018-11-25T07:30:13.433Z,70.97
2018-11-25T07:32:41.508Z,62.97
2018-11-25T07:35:09.550Z,55.67
2018-11-25T07:37:37.726Z,69.10
2018-11-25T07:40:09.596Z,64.27
2018-11-25T07:42:37.644Z,54.37
2018-11-25T07:45:08.666Z,55.10
2018-11-25T07:47:36.702Z,67.97
2018-11-25T07:50:06.334Z,53.67
2018-11-25T07:52:34.375Z,60.47
2018-11-25T07:55:02.421Z,63.17
2018-11-25T07:57:30.545Z,59.83
2018-11-25T07:59:58.648Z,61.47
2018-11-25T08:02:27.817Z,60.93
2018-11-25T08:04:54.931Z,56.87
2018-11-25T08:07:23.185Z,55.10
2018-11-25T08:09:51.248Z,62.33
2018-11-25T08:12:19.325Z,65.60
2018-11-25T08:14:47.436Z,62.50
2018-11-25T08:17:15.629Z,66.30
2018-11-25T08:19:43.849Z,60.20
2018-11-25T08:22:11.951Z,59.20
2018-11-25T08:24:40.076Z,51.80
2018-11-25T08:27:08.224Z,65.23
2018-11-25T08:29:36.302Z,64.50
2018-11-25T08:32:04.327Z,53.40
2018-11-25T08:34:32.400Z,64.70
2018-11-25T08:37:00.569Z,53.10
2018-11-25T08:39:28.627Z,57.93
2018-11-25T08:41:56.750Z,49.67
2018-11-25T08:44:24.965Z,52.87
2018-11-25T08:46:53.221Z,56.50
2018-11-25T08:49:21.320Z,53.47
2018-11-25T08:51:49.643Z,52.53
2018-11-25T08:54:17.729Z,59.80
2018-11-25T08:56:45.892Z,65.47
2018-11-25T08:59:14.088Z,57.00
2018-11-25T09:01:42.187Z,60.93
2018-11-25T09:04:10.384Z,54.90
2018-11-25T09:06:38.723Z,65.23
2018-11-25T09:09:08.244Z,60.67
2018-11-25T09:11:36.448Z,59.63
2018-11-25T09:14:04.552Z,55.67
2018-11-25T09:16:32.711Z,56.37
2018-11-25T09:19:01.857Z,61.60
2018-11-25T09:21:31.089Z,56.83
2018-11-25T09:23:59.897Z,53.73
2018-11-25T09:26:28.693Z,53.00
2018-11-25T09:28:56.878Z,48.10
2018-11-25T09:31:25.690Z,53.97
2018-11-25T09:33:54.615Z,48.47
2018-11-25T09:36:23.413Z,46.33
2018-11-25T09:38:52.705Z,52.43
2018-11-25T09:41:21.370Z,51.00
2018-11-25T09:43:49.939Z,54.03
2018-11-25T09:46:18.363Z,60.10
2018-11-25T09:48:47.399Z,56.40
2018-11-25T09:51:15.578Z,53.73
2018-11-25T09:53:43.910Z,56.48
2018-11-25T09:56:12.232Z,68.17
2018-11-25T09:58:40.752Z,65.00
2018-11-25T10:01:08.840Z,65.37
2018-11-25T10:03:37.094Z,68.53
2018-11-25T10:06:06.134Z,66.23
2018-11-25T10:08:34.267Z,65.90
2018-11-25T10:11:02.641Z,66.83
2018-11-25T10:13:30.996Z,62.53
2018-11-25T10:15:59.047Z,56.53
2018-11-25T10:18:27.423Z,72.70
2018-11-25T10:20:55.511Z,71.00
2018-11-25T10:23:24.821Z,66.43
2018-11-25T10:25:52.910Z,66.97
2018-11-25T10:28:20.996Z,65.40
2018-11-25T10:30:49.242Z,64.17
2018-11-25T10:33:17.322Z,64.20
2018-11-25T10:35:45.394Z,65.97
2018-11-25T10:38:13.538Z,63.83
2018-11-25T10:40:41.568Z,61.80
2018-11-25T10:43:09.670Z,72.60
2018-11-25T10:45:38.294Z,76.60
2018-11-25T10:48:06.357Z,69.37
2018-11-25T10:50:34.536Z,54.10
2018-11-25T10:53:02.893Z,75.47
2018-11-25T10:58:05.584Z,69.03
2018-11-25T11:00:40.234Z,57.40
2018-11-25T11:03:14.829Z,62.93
2018-11-25T11:05:48.431Z,59.33
2018-11-25T11:08:16.604Z,55.57
2018-11-25T11:10:45.811Z,61.23
2018-11-25T11:13:14.015Z,59.13
2018-11-25T11:15:42.096Z,68.60
2018-11-25T11:18:10.233Z,63.80
2018-11-25T11:20:38.502Z,52.67
2018-11-25T11:23:06.828Z,63.00
2018-11-25T11:25:35.290Z,54.63
2018-11-25T11:28:03.405Z,61.00
2018-11-25T11:30:32.827Z,58.57
2018-11-25T11:33:00.923Z,54.30
2018-11-25T11:35:29.228Z,39.83
2018-11-25T11:37:57.309Z,52.57
2018-11-25T11:40:25.549Z,62.67
2018-11-25T11:42:54.523Z,58.50
2018-11-25T11:45:22.954Z,55.43
2018-11-25T11:47:51.061Z,57.73
2018-11-25T11:50:21.247Z,60.30
2018-11-25T11:52:49.360Z,59.83
2018-11-25T11:55:17.972Z,65.43
2018-11-25T11:57:46.954Z,66.30
2018-11-25T12:00:25.110Z,48.47
2018-11-25T12:02:53.168Z,62.57
2018-11-25T12:05:21.173Z,53.40
2018-11-25T12:07:49.262Z,57.83
2018-11-25T12:10:17.800Z,61.10
2018-11-25T12:12:45.861Z,61.90
2018-11-25T12:15:15.391Z,60.47
2018-11-25T12:17:43.506Z,73.97
2018-11-25T12:20:11.871Z,67.33
2018-11-25T12:22:40.160Z,67.20
2018-11-25T12:25:10.368Z,78.40
2018-11-25T12:27:38.756Z,63.40
2018-11-25T12:30:09.314Z,75.10
2018-11-25T12:32:37.483Z,72.17
2018-11-25T12:35:06.638Z,73.67
2018-11-25T12:37:36.039Z,64.43
2018-11-25T12:40:03.512Z,73.60
2018-11-25T12:42:31.858Z,59.30
2018-11-25T12:45:00.913Z,62.13
2018-11-25T12:47:29.561Z,55.60
2018-11-25T12:49:58.222Z,70.93
2018-11-25T12:52:26.729Z,65.67
2018-11-25T12:54:54.966Z,62.43
2018-11-25T13:02:53.691Z,59.73
2018-11-25T13:05:22.000Z,53.60
2018-11-25T13:07:50.477Z,62.63
2018-11-25T13:10:19.722Z,62.93
2018-11-25T13:12:47.800Z,54.03
2018-11-25T13:15:15.868Z,57.10
2018-11-25T13:17:44.119Z,60.87
2018-11-25T13:20:14.129Z,60.47
2018-11-25T13:22:42.220Z,53.57
2018-11-25T13:25:11.637Z,59.83
2018-11-25T13:27:39.872Z,69.40
2018-11-25T13:30:15.087Z,40.73
2018-11-25T13:32:43.401Z,55.93
2018-11-25T13:35:11.585Z,48.50
2018-11-25T13:37:39.663Z,52.10
2018-11-25T13:40:09.697Z,47.10
2018-11-25T13:42:37.777Z,38.90
2018-11-25T13:45:07.013Z,46.67
2018-11-25T13:47:35.064Z,55.00
2018-11-25T13:50:03.179Z,53.90
2018-11-25T13:52:31.711Z,57.10
2018-11-25T13:54:59.778Z,22.57
2018-11-25T13:57:27.792Z,46.30
2018-11-25T13:59:55.969Z,50.87
2018-11-25T14:02:24.048Z,61.80
2018-11-25T14:04:52.150Z,66.57
2018-11-25T14:07:26.941Z,63.83
2018-11-25T14:09:55.631Z,71.17
2018-11-25T14:12:23.210Z,58.00
2018-11-25T14:14:51.566Z,64.20
2018-11-25T14:17:19.608Z,62.63
2018-11-25T14:19:47.687Z,68.50
2018-11-25T14:22:15.977Z,61.13
2018-11-25T14:24:44.015Z,64.57
2018-11-25T14:27:12.154Z,68.57
2018-11-25T14:29:40.649Z,57.33
2018-11-25T14:32:08.764Z,64.17
2018-11-25T14:34:36.840Z,49.93
2018-11-25T14:37:05.086Z,54.17
2018-11-25T14:39:33.258Z,65.47
2018-11-25T14:42:01.312Z,73.60
2018-11-25T14:44:29.353Z,62.87
2018-11-25T14:46:57.403Z,61.13
2018-11-25T14:49:25.470Z,72.00
2018-11-25T14:51:53.861Z,57.90
2018-11-25T14:54:21.916Z,62.20
2018-11-25T14:56:49.980Z,80.63
2018-11-25T14:59:18.182Z,56.17
2018-11-25T15:01:46.279Z,70.13
2018-11-25T15:04:14.307Z,59.20
2018-11-25T15:06:42.504Z,48.67
2018-11-25T15:09:11.357Z,68.67
2018-11-25T15:11:39.432Z,63.03
2018-11-25T15:14:08.149Z,79.70
2018-11-25T15:16:36.510Z,58.20
2018-11-25T15:19:05.065Z,68.13
2018-11-25T15:21:33.149Z,80.37
2018-11-25T15:24:01.218Z,75.70
2018-11-25T15:26:29.262Z,85.70
2018-11-25T15:28:57.342Z,71.17
2018-11-25T15:31:25.542Z,89.97
2018-11-25T15:33:53.616Z,84.83
2018-11-25T15:36:21.717Z,78.27
2018-11-25T15:38:49.864Z,78.10
2018-11-25T15:41:17.928Z,90.37
2018-11-25T15:43:46.026Z,58.53
2018-11-25T15:46:14.066Z,68.70
2018-11-25T15:48:42.146Z,81.37
2018-11-25T15:51:10.344Z,54.60
2018-11-25T15:53:38.385Z,67.93
2018-11-25T15:56:09.899Z,89.20
2018-11-25T15:58:37.975Z,57.87
2018-11-25T16:01:06.221Z,78.10
2018-11-25T16:03:34.291Z,19.50
2018-11-25T16:06:08.582Z,83.23
2018-11-25T16:08:38.389Z,55.03
2018-11-25T16:11:05.697Z,81.40
2018-11-25T16:13:33.758Z,76.17
2018-11-25T16:16:01.857Z,85.63
2018-11-25T16:18:29.923Z,83.47
2018-11-25T16:20:58.030Z,78.97
2018-11-25T16:23:26.247Z,69.33
2018-11-25T16:25:55.937Z,60.37
2018-11-25T16:28:31.126Z,83.37
2018-11-25T16:30:59.168Z,59.23
2018-11-25T16:33:27.537Z,61.57
2018-11-25T16:35:55.908Z,58.07
2018-11-25T16:38:23.947Z,74.80
2018-11-25T16:40:51.966Z,79.80
2018-11-25T16:43:20.139Z,84.57
2018-11-25T16:45:48.199Z,84.33
2018-11-25T16:48:16.329Z,69.07
2018-11-25T16:50:44.393Z,83.83
2018-11-25T16:53:12.431Z,50.43
2018-11-25T16:55:40.474Z,87.20
2018-11-25T16:58:08.860Z,59.90
2018-11-25T17:00:36.944Z,83.00
2018-11-25T17:03:05.161Z,82.30
2018-11-25T17:05:35.124Z,81.93
2018-11-25T17:08:11.818Z,82.03
2018-11-25T17:10:40.015Z,98.53
2018-11-25T17:13:08.153Z,94.70
2018-11-25T17:15:36.214Z,105.00
2018-11-25T17:18:04.401Z,108.43
2018-11-25T17:20:32.424Z,97.17
2018-11-25T17:23:00.481Z,82.33
2018-11-25T17:25:28.571Z,83.87
2018-11-25T17:27:56.604Z,116.07
2018-11-25T17:30:24.652Z,103.60
2018-11-25T17:32:52.829Z,99.07
2018-11-25T17:35:25.915Z,94.27
2018-11-25T17:37:54.023Z,112.63
2018-11-25T17:40:22.077Z,106.93
2018-11-25T17:42:50.341Z,105.93
2018-11-25T17:45:18.479Z,112.43
2018-11-25T17:47:46.543Z,107.10
2018-11-25T17:50:22.169Z,123.13
2018-11-25T17:52:50.327Z,65.73
2018-11-25T17:55:19.241Z,66.67
2018-11-25T17:57:47.323Z,97.47
2018-11-25T18:00:29.211Z,96.43
2018-11-25T18:02:57.712Z,111.77
2018-11-25T18:05:25.768Z,81.43
2018-11-25T18:07:53.881Z,100.63
2018-11-25T18:10:22.155Z,102.97
2018-11-25T18:12:50.210Z,99.33
2018-11-25T18:15:19.534Z,84.47
2018-11-25T18:17:50.850Z,96.27
2018-11-25T18:20:18.959Z,95.67
2018-11-25T18:22:48.104Z,105.57
2018-11-25T18:25:16.334Z,84.37
2018-11-25T18:27:44.417Z,92.00
2018-11-25T18:30:14.646Z,55.40
2018-11-25T18:32:43.407Z,86.10
2018-11-25T18:35:11.492Z,104.40
2018-11-25T18:37:39.910Z,107.43
2018-11-25T18:40:10.677Z,87.17
2018-11-25T18:42:38.952Z,98.37
2018-11-25T18:45:09.709Z,98.07
2018-11-25T18:47:37.792Z,111.00
2018-11-25T18:50:11.150Z,88.07
2018-11-25T18:52:39.446Z,70.70
2018-11-25T18:55:06.661Z,50.37
2018-11-25T18:57:34.705Z,111.67
2018-11-25T19:00:03.525Z,97.20
2018-11-25T19:02:42.366Z,102.63
2018-11-25T19:05:10.532Z,99.93
2018-11-25T19:07:38.623Z,80.47
2018-11-25T19:10:13.812Z,98.37
2018-11-25T19:12:44.273Z,112.63
2018-11-25T19:15:11.230Z,67.40
2018-11-25T19:17:39.269Z,86.70
2018-11-25T19:20:13.815Z,77.93
2018-11-25T19:22:42.273Z,92.73
2018-11-25T19:25:11.772Z,82.30
2018-11-25T19:27:39.991Z,103.93
2018-11-25T19:30:13.065Z,90.93
2018-11-25T19:32:41.570Z,77.73
2018-11-25T19:35:11.946Z,57.87
2018-11-25T19:37:40.492Z,51.60
2018-11-25T19:40:14.906Z,87.63
2018-11-25T19:42:43.385Z,85.00
2018-11-25T19:45:14.915Z,66.67
2018-11-25T19:47:43.079Z,75.10
2018-11-25T19:50:14.529Z,60.10
2018-11-25T19:52:42.803Z,72.83
2018-11-25T19:55:11.198Z,80.43
2018-11-25T19:57:39.673Z,54.10
2018-11-25T20:00:10.927Z,34.57
2018-11-25T20:02:38.994Z,64.13
2018-11-25T20:05:08.148Z,84.63
2018-11-25T20:07:36.272Z,56.13
2018-11-25T20:10:04.710Z,35.37
2018-11-25T20:12:38.512Z,66.73
2018-11-25T20:15:07.008Z,63.90
2018-11-25T20:17:35.084Z,73.17
2018-11-25T20:20:03.562Z,45.03
2018-11-25T20:22:31.637Z,66.07
2018-11-25T20:24:59.834Z,51.83
2018-11-25T20:27:33.785Z,62.90
2018-11-25T20:30:02.281Z,53.67
2018-11-25T20:32:35.682Z,50.23
2018-11-25T20:35:03.807Z,57.90
2018-11-25T20:37:31.885Z,60.37
2018-11-25T20:40:00.284Z,35.67
2018-11-25T20:42:28.422Z,51.33
2018-11-25T20:44:56.972Z,47.30
2018-11-25T20:47:25.076Z,49.70
2018-11-25T20:49:53.163Z,33.03
2018-11-25T20:52:26.706Z,59.40
2018-11-25T20:54:54.777Z,60.23
2018-11-25T20:57:22.840Z,47.23
2018-11-25T20:59:51.328Z,66.90
2018-11-25T21:02:20.359Z,54.93
2018-11-25T21:04:47.525Z,50.67
2018-11-25T21:07:15.641Z,55.57
2018-11-25T21:09:43.688Z,41.63
2018-11-25T21:12:11.711Z,48.10
2018-11-25T21:14:39.946Z,50.40
2018-11-25T21:17:08.046Z,47.47
2018-11-25T21:20:08.439Z,36.93
2018-11-25T21:22:36.531Z,24.83
2018-11-25T21:25:07.174Z,54.13
2018-11-25T21:27:35.360Z,48.00
2018-11-25T21:30:04.424Z,37.03
2018-11-25T21:32:32.488Z,46.90
2018-11-25T21:35:00.567Z,63.97
2018-11-25T21:37:28.603Z,55.50
2018-11-25T21:39:56.772Z,39.83
2018-11-25T21:42:25.003Z,47.47
2018-11-25T21:44:53.065Z,48.40
2018-11-25T21:47:21.526Z,46.90
2018-11-25T21:49:49.859Z,37.97
2018-11-25T21:52:17.889Z,54.50
2018-11-25T21:54:46.017Z,24.63
2018-11-25T21:57:14.069Z,48.50
2018-11-25T21:59:42.149Z,61.47
2018-11-25T22:02:10.435Z,34.13
2018-11-25T22:04:38.577Z,33.10
2018-11-25T22:07:06.647Z,29.57
2018-11-25T22:09:34.697Z,23.10
2018-11-25T22:12:02.806Z,39.97
2018-11-25T22:14:30.876Z,46.57
2018-11-25T22:16:59.333Z,21.90
2018-11-25T22:19:27.421Z,47.20
2018-11-25T22:21:55.484Z,54.67
2018-11-25T22:24:23.548Z,26.97
2018-11-25T22:26:51.604Z,49.93
2018-11-25T22:29:19.679Z,41.67
2018-11-25T22:31:47.742Z,50.77
2018-11-25T22:34:16.381Z,42.37
2018-11-25T22:36:44.447Z,37.30
2018-11-25T22:39:12.504Z,35.93
2018-11-25T22:41:40.542Z,25.73
2018-11-25T22:44:08.796Z,41.80
2018-11-25T22:46:36.864Z,44.83
2018-11-25T22:49:05.801Z,33.40
2018-11-25T22:51:33.850Z,44.93
2018-11-25T22:54:02.023Z,43.90
2018-11-25T22:56:30.109Z,33.40
2018-11-25T22:58:58.168Z,31.33
2018-11-25T23:01:26.628Z,41.43
2018-11-25T23:04:06.206Z,28.73
2018-11-25T23:06:45.778Z,41.97
2018-11-25T23:09:13.901Z,32.20
2018-11-25T23:11:42.468Z,41.90
2018-11-25T23:14:10.734Z,44.20
2018-11-25T23:16:38.793Z,50.33
2018-11-25T23:19:06.881Z,12.17
2018-11-25T23:21:34.927Z,20.07
2018-11-25T23:24:03.652Z,19.87
2018-11-25T23:26:31.725Z,31.53
2018-11-25T23:28:59.794Z,21.63
2018-11-25T23:31:27.836Z,42.30
2018-11-25T23:33:55.899Z,12.67
2018-11-25T23:36:23.993Z,24.00
2018-11-25T23:38:52.092Z,52.30
2018-11-25T23:41:20.213Z,41.53
2018-11-25T23:43:48.303Z,28.20
2018-11-25T23:46:17.921Z,26.87
2018-11-25T23:48:46.019Z,36.13
2018-11-25T23:51:14.086Z,45.57
2018-11-25T23:53:49.204Z,35.13
2018-11-25T23:56:17.277Z,23.53
2018-11-25T23:58:45.353Z,36.00
